createdAt,value
2023-02-15T00:02:08.902Z,21.00
2023-02-15T00:04:49.090Z,23.83
2023-02-15T00:07:20.453Z,26.77
2023-02-15T00:09:48.894Z,22.83
2023-02-15T00:12:17.789Z,23.53
2023-02-15T00:14:46.118Z,20.13
2023-02-15T00:17:14.074Z,24.00
2023-02-15T00:19:42.118Z,24.67
2023-02-15T00:22:10.387Z,24.90
2023-02-15T00:24:39.611Z,26.57
2023-02-15T00:27:07.533Z,25.93
2023-02-15T00:29:35.376Z,28.93
2023-02-15T00:32:03.294Z,26.57
2023-02-15T00:34:31.226Z,24.83
2023-02-15T00:36:59.292Z,26.30
2023-02-15T00:39:28.345Z,24.73
2023-02-15T00:41:57.662Z,26.53
2023-02-15T00:44:25.589Z,26.77
2023-02-15T00:46:53.482Z,25.93
2023-02-15T00:49:22.397Z,27.23
2023-02-15T00:51:50.294Z,23.90
2023-02-15T00:54:18.254Z,24.40
2023-02-15T00:56:46.074Z,26.53
2023-02-15T00:59:15.502Z,25.27
2023-02-15T01:01:43.385Z,26.97
2023-02-15T01:04:11.344Z,27.17
2023-02-15T01:06:39.271Z,25.97
2023-02-15T01:09:07.301Z,27.87
2023-02-15T01:11:35.238Z,27.10
2023-02-15T01:14:04.148Z,25.57
2023-02-15T01:16:33.483Z,26.40
2023-02-15T01:19:03.470Z,30.50
2023-02-15T01:21:35.353Z,27.67
2023-02-15T01:24:04.495Z,26.20
2023-02-15T01:26:32.434Z,21.70
2023-02-15T01:29:00.493Z,26.70
2023-02-15T01:31:28.457Z,24.20
2023-02-15T01:33:57.894Z,28.67
2023-02-15T01:36:25.990Z,23.40
2023-02-15T01:38:53.897Z,24.90
2023-02-15T01:41:23.697Z,24.17
2023-02-15T01:43:54.177Z,26.47
2023-02-15T01:46:26.631Z,25.77
2023-02-15T01:48:59.658Z,23.27
2023-02-15T01:51:31.331Z,30.83
2023-02-15T01:54:03.711Z,24.67
2023-02-15T01:56:35.537Z,23.43
2023-02-15T01:59:09.900Z,24.93
2023-02-15T02:01:38.499Z,28.80
2023-02-15T02:04:14.362Z,28.20
2023-02-15T02:06:42.378Z,28.93
2023-02-15T02:09:11.304Z,29.03
2023-02-15T02:11:41.321Z,30.30
2023-02-15T02:14:10.001Z,27.07
2023-02-15T02:16:45.275Z,23.50
2023-02-15T02:19:40.773Z,26.80
2023-02-15T02:22:42.239Z,27.00
2023-02-15T02:25:51.332Z,21.20
2023-02-15T02:28:43.850Z,25.87
2023-02-15T02:31:38.192Z,22.13
2023-02-15T02:34:15.451Z,24.53
2023-02-15T02:36:50.273Z,23.53
2023-02-15T02:39:32.215Z,23.50
2023-02-15T02:42:07.819Z,22.67
2023-02-15T02:44:44.911Z,28.20
2023-02-15T02:47:18.371Z,27.37
2023-02-15T02:49:47.646Z,26.20
2023-02-15T02:52:38.495Z,24.53
2023-02-15T02:55:11.694Z,27.20
2023-02-15T02:57:44.576Z,26.20
2023-02-15T03:00:16.744Z,26.80
2023-02-15T03:02:49.966Z,27.43
2023-02-15T03:05:26.220Z,24.70
2023-02-15T03:07:57.927Z,25.30
2023-02-15T03:10:28.353Z,29.73
2023-02-15T03:12:56.329Z,27.97
2023-02-15T03:15:49.019Z,24.90
2023-02-15T03:18:19.246Z,28.40
2023-02-15T03:20:49.859Z,26.93
2023-02-15T03:23:21.823Z,27.87
2023-02-15T03:25:54.360Z,31.73
2023-02-15T03:28:31.117Z,25.37
2023-02-15T03:31:03.001Z,32.90
2023-02-15T03:33:31.805Z,24.30
2023-02-15T03:36:06.933Z,22.03
2023-02-15T03:38:44.285Z,22.90
2023-02-15T03:41:15.147Z,24.40
2023-02-15T03:43:50.196Z,25.17
2023-02-15T03:46:26.564Z,23.17
2023-02-15T03:48:56.505Z,22.47
2023-02-15T03:51:39.124Z,25.93
2023-02-15T03:54:10.609Z,19.17
2023-02-15T03:56:40.743Z,26.97
2023-02-15T03:59:26.358Z,24.10
2023-02-15T04:02:11.974Z,24.93
2023-02-15T04:04:43.116Z,25.37
2023-02-15T04:07:12.945Z,20.57
2023-02-15T04:09:58.294Z,20.87
2023-02-15T04:12:26.246Z,25.00
2023-02-15T04:15:11.749Z,24.33
2023-02-15T04:17:40.174Z,27.00
2023-02-15T04:20:27.808Z,24.93
2023-02-15T04:23:14.394Z,25.80
2023-02-15T04:25:42.305Z,23.63
2023-02-15T04:28:10.715Z,25.77
2023-02-15T04:30:38.714Z,27.53
2023-02-15T04:33:06.657Z,25.00
2023-02-15T04:35:34.593Z,25.30
2023-02-15T04:38:04.018Z,26.10
2023-02-15T04:40:32.184Z,26.40
2023-02-15T04:43:00.146Z,23.63
2023-02-15T04:45:28.190Z,29.23
2023-02-15T04:47:56.231Z,22.13
2023-02-15T04:50:24.226Z,25.20
2023-02-15T04:52:54.698Z,21.70
2023-02-15T04:55:24.110Z,23.23
2023-02-15T04:57:51.968Z,23.13
2023-02-15T05:00:20.557Z,27.00
2023-02-15T05:02:48.503Z,23.37
2023-02-15T05:05:16.583Z,23.60
2023-02-15T05:07:44.443Z,22.33
2023-02-15T05:10:12.563Z,21.90
2023-02-15T05:12:42.132Z,20.60
2023-02-15T05:15:10.869Z,21.30
2023-02-15T05:17:38.914Z,24.90
2023-02-15T05:20:08.445Z,24.00
2023-02-15T05:22:36.558Z,24.40
2023-02-15T05:25:22.229Z,24.23
2023-02-15T05:28:09.210Z,27.30
2023-02-15T05:30:37.491Z,21.00
2023-02-15T05:33:05.433Z,20.90
2023-02-15T05:35:33.861Z,25.33
2023-02-15T05:38:01.810Z,22.00
2023-02-15T05:40:29.679Z,24.13
2023-02-15T05:42:59.656Z,26.97
2023-02-15T05:45:27.755Z,29.70
2023-02-15T05:47:55.954Z,29.50
2023-02-15T05:50:23.755Z,26.00
2023-02-15T05:52:52.561Z,28.63
2023-02-15T05:55:20.972Z,25.53
2023-02-15T05:57:48.988Z,25.43
2023-02-15T06:00:20.379Z,34.93
2023-02-15T06:02:48.301Z,31.03
2023-02-15T06:05:16.349Z,34.47
2023-02-15T06:07:45.251Z,36.07
2023-02-15T06:10:13.842Z,29.77
2023-02-15T06:12:41.861Z,32.97
2023-02-15T06:15:10.646Z,33.60
2023-02-15T06:17:39.982Z,33.40
2023-02-15T06:20:09.306Z,35.03
2023-02-15T06:22:37.281Z,32.43
2023-02-15T06:25:05.608Z,39.20
2023-02-15T06:27:33.722Z,35.33
2023-02-15T06:30:01.687Z,35.90
2023-02-15T06:32:30.121Z,38.90
2023-02-15T06:34:59.486Z,38.43
2023-02-15T06:37:27.407Z,39.43
2023-02-15T06:39:55.299Z,49.70
2023-02-15T06:42:23.616Z,46.40
2023-02-15T06:44:51.717Z,52.20
2023-02-15T06:47:19.557Z,57.07
2023-02-15T06:49:47.411Z,70.17
2023-02-15T06:52:16.687Z,66.40
2023-02-15T06:54:44.516Z,51.70
2023-02-15T06:57:12.445Z,46.00
2023-02-15T06:59:40.358Z,40.13
2023-02-15T07:02:08.322Z,37.03
2023-02-15T07:04:36.756Z,39.50
2023-02-15T07:07:04.724Z,36.67
2023-02-15T07:09:34.052Z,34.70
2023-02-15T07:12:19.664Z,38.00
2023-02-15T07:14:47.550Z,41.47
2023-02-15T07:17:35.094Z,41.40
2023-02-15T07:20:03.850Z,42.47
2023-02-15T07:22:31.828Z,40.40
2023-02-15T07:25:01.093Z,46.20
2023-02-15T07:27:28.954Z,37.17
2023-02-15T07:29:56.904Z,35.07
2023-02-15T07:32:24.929Z,45.77
2023-02-15T07:34:52.866Z,34.60
2023-02-15T07:37:20.786Z,32.17
2023-02-15T07:39:48.676Z,26.37
2023-02-15T07:42:18.863Z,23.27
2023-02-15T07:44:48.212Z,25.73
2023-02-15T07:47:16.265Z,29.30
2023-02-15T07:49:44.282Z,31.37
2023-02-15T07:52:12.281Z,26.47
2023-02-15T07:54:40.285Z,25.13
2023-02-15T07:57:08.248Z,25.47
2023-02-15T07:59:37.532Z,28.70
2023-02-15T08:02:07.243Z,27.13
2023-02-15T08:04:35.086Z,28.53
2023-02-15T08:07:02.870Z,26.97
2023-02-15T08:09:30.776Z,25.10
2023-02-15T08:11:58.655Z,25.37
2023-02-15T08:14:26.579Z,24.97
2023-02-15T08:16:57.286Z,21.63
2023-02-15T08:19:26.584Z,27.00
2023-02-15T08:21:57.822Z,26.30
2023-02-15T08:24:28.325Z,23.10
2023-02-15T08:26:56.728Z,23.27
2023-02-15T08:29:26.570Z,23.67
2023-02-15T08:31:59.673Z,28.73
2023-02-15T08:34:28.073Z,25.87
2023-02-15T08:36:56.014Z,24.93
2023-02-15T08:39:24.351Z,20.40
2023-02-15T08:41:52.280Z,26.50
2023-02-15T08:44:21.476Z,26.00
2023-02-15T08:46:50.722Z,27.23
2023-02-15T08:49:21.964Z,24.70
2023-02-15T08:51:51.229Z,25.23
2023-02-15T08:54:21.578Z,25.67
2023-02-15T08:56:49.960Z,26.90
2023-02-15T08:59:19.977Z,31.70
2023-02-15T09:01:48.662Z,31.57
2023-02-15T09:04:17.255Z,27.43
2023-02-15T09:06:49.184Z,28.83
2023-02-15T09:09:17.601Z,25.03
2023-02-15T09:11:48.353Z,31.30
2023-02-15T09:14:18.393Z,30.63
2023-02-15T09:16:49.590Z,27.03
2023-02-15T09:19:18.434Z,25.80
2023-02-15T09:21:47.836Z,26.20
2023-02-15T09:24:17.416Z,29.90
2023-02-15T09:26:48.513Z,25.67
2023-02-15T09:29:18.018Z,21.63
2023-02-15T09:31:49.621Z,26.87
2023-02-15T09:34:19.682Z,25.40
2023-02-15T09:36:49.241Z,27.30
2023-02-15T09:39:19.511Z,28.10
2023-02-15T09:42:06.498Z,28.13
2023-02-15T09:44:48.859Z,23.17
2023-02-15T09:47:38.270Z,25.70
2023-02-15T09:50:20.236Z,25.50
2023-02-15T09:53:14.365Z,23.07
2023-02-15T09:55:53.260Z,27.50
2023-02-15T09:58:31.256Z,24.23
2023-02-15T10:01:05.730Z,25.10
2023-02-15T10:03:52.768Z,27.30
2023-02-15T10:06:42.822Z,21.90
2023-02-15T10:09:26.926Z,22.20
2023-02-15T10:12:09.348Z,27.67
2023-02-15T10:14:57.965Z,24.53
2023-02-15T10:17:41.597Z,21.90
2023-02-15T10:20:20.036Z,23.43
2023-02-15T10:23:00.934Z,24.47
2023-02-15T10:25:42.381Z,25.83
2023-02-15T10:28:19.569Z,26.50
2023-02-15T10:30:51.484Z,25.30
2023-02-15T10:33:40.095Z,26.33
2023-02-15T10:36:28.959Z,29.03
2023-02-15T10:39:04.357Z,28.00
2023-02-15T10:41:47.147Z,26.93
2023-02-15T10:44:35.805Z,28.63
2023-02-15T10:47:19.283Z,27.17
2023-02-15T10:50:02.650Z,27.20
2023-02-15T10:52:43.121Z,36.93
2023-02-15T10:55:20.742Z,27.17
2023-02-15T10:58:01.250Z,24.90
2023-02-15T11:00:40.162Z,23.80
2023-02-15T11:03:23.574Z,27.30
2023-02-15T11:06:02.138Z,25.03
2023-02-15T11:08:33.688Z,23.30
2023-02-15T11:11:06.305Z,24.50
2023-02-15T11:13:40.805Z,22.80
2023-02-15T11:16:13.553Z,23.60
2023-02-15T11:18:46.462Z,25.90
2023-02-15T11:21:22.654Z,25.13
2023-02-15T11:23:51.308Z,26.87
2023-02-15T11:26:26.069Z,30.30
2023-02-15T11:28:59.327Z,27.60
2023-02-15T11:31:31.473Z,35.53
2023-02-15T11:34:05.286Z,27.20
2023-02-15T11:36:38.102Z,29.93
2023-02-15T11:39:11.742Z,27.80
2023-02-15T11:41:43.551Z,32.00
2023-02-15T11:44:21.809Z,29.30
2023-02-15T11:46:49.714Z,30.97
2023-02-15T11:49:25.798Z,32.63
2023-02-15T11:51:55.147Z,32.33
2023-02-15T11:54:28.788Z,29.47
2023-02-15T11:56:58.102Z,30.47
2023-02-15T11:59:34.310Z,33.17
2023-02-15T12:02:02.320Z,34.03
2023-02-15T12:04:35.009Z,28.23
2023-02-15T12:07:08.726Z,30.10
2023-02-15T12:09:40.522Z,31.70
2023-02-15T12:12:24.121Z,31.43
2023-02-15T12:14:55.446Z,31.30
2023-02-15T12:17:26.118Z,30.13
2023-02-15T12:19:57.151Z,34.70
2023-02-15T12:22:27.709Z,32.13
2023-02-15T12:24:58.530Z,29.70
2023-02-15T12:27:29.179Z,33.70
2023-02-15T12:30:03.262Z,31.60
2023-02-15T12:32:36.884Z,35.07
2023-02-15T12:35:15.504Z,37.07
2023-02-15T12:37:56.956Z,35.13
2023-02-15T12:40:26.924Z,32.40
2023-02-15T12:42:54.746Z,35.63
2023-02-15T12:45:27.229Z,35.50
2023-02-15T12:48:16.795Z,31.30
2023-02-15T12:50:46.195Z,32.87
2023-02-15T12:53:21.003Z,31.40
2023-02-15T12:55:54.649Z,33.23
2023-02-15T12:58:26.096Z,33.97
2023-02-15T13:01:13.771Z,29.77
2023-02-15T13:03:57.487Z,33.63
2023-02-15T13:06:25.834Z,28.80
2023-02-15T13:08:59.558Z,30.27
2023-02-15T13:11:35.012Z,27.63
2023-02-15T13:14:05.322Z,28.87
2023-02-15T13:16:38.497Z,29.70
2023-02-15T13:19:12.982Z,28.73
2023-02-15T13:21:44.079Z,30.40
2023-02-15T13:24:20.934Z,25.70
2023-02-15T13:26:49.790Z,29.93
2023-02-15T13:29:23.347Z,30.50
2023-02-15T13:31:54.883Z,27.83
2023-02-15T13:34:27.516Z,25.40
2023-02-15T13:37:04.931Z,28.40
2023-02-15T13:39:40.493Z,32.53
2023-02-15T13:42:22.575Z,27.73
2023-02-15T13:45:11.356Z,26.93
2023-02-15T13:47:47.756Z,27.80
2023-02-15T13:50:49.674Z,28.63
2023-02-15T13:53:43.299Z,28.00
2023-02-15T13:56:18.407Z,27.13
2023-02-15T13:59:04.899Z,31.00
2023-02-15T14:01:41.512Z,29.47
2023-02-15T14:04:41.788Z,28.13
2023-02-15T14:07:26.588Z,29.50
2023-02-15T14:10:04.828Z,26.37
2023-02-15T14:12:48.086Z,31.17
2023-02-15T14:15:29.660Z,29.20
2023-02-15T14:18:11.395Z,38.50
2023-02-15T14:20:52.526Z,30.60
2023-02-15T14:23:37.079Z,29.40
2023-02-15T14:26:12.335Z,30.27
2023-02-15T14:28:47.680Z,32.17
2023-02-15T14:31:17.705Z,34.87
2023-02-15T14:33:55.794Z,30.53
2023-02-15T14:36:27.291Z,34.47
2023-02-15T14:39:32.661Z,26.83
2023-02-15T14:42:04.189Z,31.10
2023-02-15T14:44:39.457Z,27.40
2023-02-15T14:47:13.174Z,31.73
2023-02-15T14:49:41.835Z,33.43
2023-02-15T14:52:13.543Z,32.97
2023-02-15T14:54:59.398Z,31.30
2023-02-15T14:57:34.126Z,27.37
2023-02-15T15:00:09.169Z,29.00
2023-02-15T15:02:49.922Z,34.00
2023-02-15T15:05:21.869Z,31.53
2023-02-15T15:07:54.797Z,33.30
2023-02-15T15:10:38.704Z,29.03
2023-02-15T15:13:42.346Z,36.97
2023-02-15T15:16:43.687Z,29.60
2023-02-15T15:19:13.633Z,33.60
2023-02-15T15:22:05.547Z,36.97
2023-02-15T15:24:55.243Z,30.10
2023-02-15T15:27:46.647Z,34.50
2023-02-15T15:31:02.630Z,31.30
2023-02-15T15:34:01.921Z,26.23
2023-02-15T15:37:19.678Z,31.30
2023-02-15T15:40:40.973Z,32.83
2023-02-15T15:43:34.663Z,34.10
2023-02-15T15:46:22.856Z,34.20
2023-02-15T15:48:51.296Z,32.83
2023-02-15T15:51:22.747Z,33.03
2023-02-15T15:53:54.273Z,32.30
2023-02-15T15:56:26.616Z,32.13
2023-02-15T15:58:57.980Z,31.90
2023-02-15T16:01:30.912Z,35.50
2023-02-15T16:04:00.991Z,30.40
2023-02-15T16:06:36.785Z,36.60
2023-02-15T16:09:17.527Z,30.87
2023-02-15T16:11:48.592Z,29.80
2023-02-15T16:14:21.322Z,30.43
2023-02-15T16:16:53.050Z,32.70
2023-02-15T16:19:28.140Z,32.23
2023-02-15T16:21:59.510Z,30.57
2023-02-15T16:24:47.783Z,31.37
2023-02-15T16:27:41.769Z,31.87
2023-02-15T16:30:30.028Z,33.60
2023-02-15T16:33:06.473Z,29.10
2023-02-15T16:35:35.412Z,32.80
2023-02-15T16:38:04.118Z,35.90
2023-02-15T16:40:48.148Z,35.50
2023-02-15T16:43:22.407Z,36.87
2023-02-15T16:45:50.902Z,46.73
2023-02-15T16:48:23.083Z,40.30
2023-02-15T16:50:55.151Z,36.07
2023-02-15T16:53:26.215Z,35.30
2023-02-15T16:55:57.373Z,36.93
2023-02-15T16:58:39.093Z,38.07
2023-02-15T17:01:10.735Z,79.47
2023-02-15T17:03:39.162Z,78.50
2023-02-15T17:06:22.504Z,48.40
2023-02-15T17:08:50.705Z,35.17
2023-02-15T17:11:20.851Z,41.77
2023-02-15T17:14:16.351Z,34.40
2023-02-15T17:16:50.006Z,34.90
2023-02-15T17:19:21.443Z,31.50
2023-02-15T17:21:52.676Z,40.07
2023-02-15T17:24:26.925Z,40.23
2023-02-15T17:27:01.376Z,33.40
2023-02-15T17:29:36.172Z,36.13
2023-02-15T17:32:05.926Z,35.30
2023-02-15T17:34:50.431Z,37.80
2023-02-15T17:37:28.888Z,38.10
2023-02-15T17:40:00.632Z,32.60
2023-02-15T17:42:28.686Z,34.43
2023-02-15T17:44:57.854Z,35.83
2023-02-15T17:47:27.762Z,37.40
2023-02-15T17:49:55.823Z,35.10
2023-02-15T17:52:25.030Z,36.37
2023-02-15T17:55:10.319Z,37.60
2023-02-15T17:57:38.661Z,39.30
2023-02-15T18:00:28.081Z,46.23
2023-02-15T18:03:13.568Z,44.37
2023-02-15T18:05:58.968Z,42.30
2023-02-15T18:08:46.857Z,42.63
2023-02-15T18:11:32.495Z,46.23
2023-02-15T18:14:01.460Z,48.33
2023-02-15T18:16:34.201Z,44.63
2023-02-15T18:19:04.801Z,44.93
2023-02-15T18:21:33.823Z,48.10
2023-02-15T18:24:02.860Z,40.60
2023-02-15T18:26:31.026Z,43.10
2023-02-15T18:28:58.824Z,41.20
2023-02-15T18:31:27.055Z,43.80
2023-02-15T18:33:59.130Z,43.27
2023-02-15T18:36:30.209Z,48.87
2023-02-15T18:38:58.422Z,39.23
2023-02-15T18:41:26.365Z,35.10
2023-02-15T18:43:55.478Z,33.70
2023-02-15T18:46:23.753Z,39.10
2023-02-15T18:48:51.655Z,53.90
2023-02-15T18:51:22.677Z,72.13
2023-02-15T18:53:52.884Z,54.60
2023-02-15T18:56:23.402Z,43.13
2023-02-15T18:58:51.335Z,34.63
2023-02-15T19:01:21.658Z,36.13
2023-02-15T19:03:51.208Z,35.30
2023-02-15T19:06:23.053Z,40.10
2023-02-15T19:08:53.460Z,33.20
2023-02-15T19:11:25.639Z,43.03
2023-02-15T19:13:55.010Z,46.43
2023-02-15T19:16:29.510Z,45.53
2023-02-15T19:18:57.820Z,49.37
2023-02-15T19:21:29.307Z,44.30
2023-02-15T19:24:00.036Z,40.07
2023-02-15T19:26:44.438Z,42.03
2023-02-15T19:29:16.897Z,40.80
2023-02-15T19:31:45.012Z,41.97
2023-02-15T19:34:17.808Z,38.80
2023-02-15T19:36:49.928Z,44.33
2023-02-15T19:39:27.185Z,45.30
2023-02-15T19:41:55.537Z,42.43
2023-02-15T19:44:23.721Z,43.83
2023-02-15T19:46:51.945Z,48.90
2023-02-15T19:49:19.903Z,50.20
2023-02-15T19:51:49.530Z,47.10
2023-02-15T19:54:30.670Z,48.90
2023-02-15T19:56:59.138Z,50.73
2023-02-15T19:59:28.884Z,39.77
2023-02-15T20:01:57.568Z,47.87
2023-02-15T20:04:26.020Z,46.73
2023-02-15T20:06:57.972Z,46.33
2023-02-15T20:09:29.617Z,44.40
2023-02-15T20:11:57.681Z,42.57
2023-02-15T20:14:25.643Z,46.20
2023-02-15T20:16:53.659Z,46.00
2023-02-15T20:19:21.613Z,48.77
2023-02-15T20:21:54.333Z,50.33
2023-02-15T20:24:27.454Z,53.77
2023-02-15T20:26:55.404Z,53.40
2023-02-15T20:29:23.218Z,53.47
2023-02-15T20:31:54.069Z,58.90
2023-02-15T20:34:23.105Z,56.77
2023-02-15T20:36:51.236Z,54.10
2023-02-15T20:39:20.417Z,51.47
2023-02-15T20:41:49.821Z,52.20
2023-02-15T20:44:23.561Z,55.60
2023-02-15T20:46:53.357Z,55.77
2023-02-15T20:49:21.400Z,55.20
2023-02-15T20:51:49.495Z,56.17
2023-02-15T20:54:18.770Z,64.10
2023-02-15T20:56:47.032Z,58.10
2023-02-15T20:59:25.739Z,53.83
2023-02-15T21:01:59.010Z,53.17
2023-02-15T21:04:31.394Z,58.80
2023-02-15T21:06:59.920Z,52.93
2023-02-15T21:09:28.485Z,50.50
2023-02-15T21:11:59.014Z,58.57
2023-02-15T21:14:30.078Z,67.50
2023-02-15T21:16:58.067Z,66.13
2023-02-15T21:19:26.129Z,57.93
2023-02-15T21:21:54.578Z,54.87
2023-02-15T21:24:25.427Z,55.37
2023-02-15T21:26:54.264Z,54.37
2023-02-15T21:29:24.720Z,56.93
2023-02-15T21:31:54.514Z,62.37
2023-02-15T21:34:22.554Z,57.53
2023-02-15T21:36:51.783Z,62.67
2023-02-15T21:39:22.299Z,54.30
2023-02-15T21:42:09.752Z,61.23
2023-02-15T21:44:55.530Z,57.60
2023-02-15T21:47:45.123Z,56.27
2023-02-15T21:50:32.412Z,62.27
2023-02-15T21:53:00.535Z,64.97
2023-02-15T21:55:28.407Z,63.27
2023-02-15T21:57:56.310Z,52.03
2023-02-15T22:00:26.008Z,54.40
2023-02-15T22:02:56.815Z,60.40
2023-02-15T22:05:27.823Z,66.27
2023-02-15T22:07:57.106Z,63.83
2023-02-15T22:10:27.417Z,63.40
2023-02-15T22:12:56.377Z,61.20
2023-02-15T22:15:25.832Z,65.00
2023-02-15T22:17:55.120Z,62.27
2023-02-15T22:20:25.173Z,59.17
2023-02-15T22:22:53.924Z,64.33
2023-02-15T22:25:24.626Z,60.83
2023-02-15T22:27:54.418Z,59.13
2023-02-15T22:30:26.690Z,61.00
2023-02-15T22:32:57.571Z,63.33
2023-02-15T22:35:27.738Z,61.10
2023-02-15T22:37:56.326Z,62.60
2023-02-15T22:40:29.060Z,59.57
2023-02-15T22:42:58.891Z,53.10
2023-02-15T22:45:28.167Z,52.47
2023-02-15T22:48:00.439Z,60.70
2023-02-15T22:50:30.933Z,63.23
2023-02-15T22:53:01.690Z,52.67
2023-02-15T22:55:33.645Z,59.93
2023-02-15T22:58:02.113Z,52.87
2023-02-15T23:00:34.775Z,55.87
2023-02-15T23:03:14.672Z,60.07
2023-02-15T23:05:42.516Z,58.83
2023-02-15T23:08:11.156Z,62.00
2023-02-15T23:10:40.524Z,52.77
2023-02-15T23:13:25.811Z,58.57
2023-02-15T23:15:58.768Z,58.73
2023-02-15T23:18:31.905Z,63.67
2023-02-15T23:21:02.253Z,58.40
2023-02-15T23:23:33.724Z,62.73
2023-02-15T23:26:04.227Z,56.00
2023-02-15T23:28:35.969Z,50.10
2023-02-15T23:31:04.627Z,61.90
2023-02-15T23:33:35.969Z,60.93
2023-02-15T23:36:05.012Z,57.03
2023-02-15T23:38:33.785Z,51.60
2023-02-15T23:41:21.190Z,52.60
2023-02-15T23:43:53.323Z,59.97
2023-02-15T23:46:28.335Z,54.87
2023-02-15T23:48:57.983Z,60.20
2023-02-15T23:51:30.697Z,58.07
2023-02-15T23:53:58.863Z,56.83
2023-02-15T23:56:26.856Z,65.03
2023-02-15T23:58:54.866Z,64.53
